sensor_id;sensor_type;location;lat;lon;timestamp;pressure;altitude;pressure_sealevel;temperature;humidity
20630;BME280;17386;43.846;25.950;2022-09-20T00:02:16;101172.28;;;14.54;89.39
20630;BME280;17386;43.846;25.950;2022-09-20T00:04:42;101176.47;;;14.59;89.06
20630;BME280;17386;43.846;25.950;2022-09-20T00:07:07;101181.91;;;14.58;89.25
20630;BME280;17386;43.846;25.950;2022-09-20T00:09:33;101182.19;;;14.52;89.12
20630;BME280;17386;43.846;25.950;2022-09-20T00:11:58;101186.22;;;14.19;90.97
20630;BME280;17386;43.846;25.950;2022-09-20T00:14:24;101185.09;;;14.25;90.67
20630;BME280;17386;43.846;25.950;2022-09-20T00:16:50;101180.09;;;14.17;90.78
20630;BME280;17386;43.846;25.950;2022-09-20T00:19:19;101182.75;;;13.97;92.47
20630;BME280;17386;43.846;25.950;2022-09-20T00:21:44;101179.66;;;14.08;91.72
20630;BME280;17386;43.846;25.950;2022-09-20T00:24:10;101173.00;;;13.96;91.95
20630;BME280;17386;43.846;25.950;2022-09-20T00:26:35;101181.44;;;14.07;92.11
20630;BME280;17386;43.846;25.950;2022-09-20T00:29:01;101174.06;;;14.12;91.57
20630;BME280;17386;43.846;25.950;2022-09-20T00:31:27;101174.94;;;14.13;91.31
20630;BME280;17386;43.846;25.950;2022-09-20T00:33:54;101172.22;;;14.14;91.18
20630;BME280;17386;43.846;25.950;2022-09-20T00:36:38;101174.28;;;13.87;92.53
20630;BME280;17386;43.846;25.950;2022-09-20T00:39:03;101166.53;;;14.02;92.04
20630;BME280;17386;43.846;25.950;2022-09-20T00:41:30;101173.72;;;14.00;92.00
20630;BME280;17386;43.846;25.950;2022-09-20T00:43:56;101169.16;;;14.03;91.78
20630;BME280;17386;43.846;25.950;2022-09-20T00:46:26;101169.75;;;14.10;91.22
20630;BME280;17386;43.846;25.950;2022-09-20T00:49:05;101168.34;;;14.01;91.36
20630;BME280;17386;43.846;25.950;2022-09-20T00:51:38;101169.22;;;14.02;91.49
20630;BME280;17386;43.846;25.950;2022-09-20T00:54:06;101175.50;;;14.01;91.38
20630;BME280;17386;43.846;25.950;2022-09-20T00:56:38;101160.84;;;13.89;91.62
20630;BME280;17386;43.846;25.950;2022-09-20T01:01:45;101173.66;;;13.81;92.35
20630;BME280;17386;43.846;25.950;2022-09-20T01:04:14;101155.09;;;13.78;92.83
20630;BME280;17386;43.846;25.950;2022-09-20T01:06:42;101164.22;;;13.72;93.19
20630;BME280;17386;43.846;25.950;2022-09-20T01:09:09;101152.56;;;13.75;92.99
20630;BME280;17386;43.846;25.950;2022-09-20T01:11:35;101146.44;;;13.73;93.02
20630;BME280;17386;43.846;25.950;2022-09-20T01:14:01;101152.63;;;13.73;93.03
20630;BME280;17386;43.846;25.950;2022-09-20T01:16:28;101141.88;;;13.75;93.19
20630;BME280;17386;43.846;25.950;2022-09-20T01:18:57;101139.91;;;13.58;94.24
20630;BME280;17386;43.846;25.950;2022-09-20T01:21:25;101143.59;;;13.55;94.04
20630;BME280;17386;43.846;25.950;2022-09-20T01:32:19;101131.59;;;13.44;94.75
20630;BME280;17386;43.846;25.950;2022-09-20T01:34:47;101127.34;;;13.39;94.87
20630;BME280;17386;43.846;25.950;2022-09-20T01:37:25;101132.13;;;13.31;94.88
20630;BME280;17386;43.846;25.950;2022-09-20T01:42:16;101136.31;;;13.37;95.21
20630;BME280;17386;43.846;25.950;2022-09-20T01:47:50;101140.69;;;13.39;95.12
20630;BME280;17386;43.846;25.950;2022-09-20T01:50:24;101144.66;;;13.29;95.35
20630;BME280;17386;43.846;25.950;2022-09-20T02:06:35;101153.84;;;12.99;97.37
20630;BME280;17386;43.846;25.950;2022-09-20T02:17:33;101155.25;;;12.85;98.12
20630;BME280;17386;43.846;25.950;2022-09-20T02:29:05;101151.72;;;12.85;98.54
20630;BME280;17386;43.846;25.950;2022-09-20T02:43:10;101155.75;;;12.95;97.25
20630;BME280;17386;43.846;25.950;2022-09-20T02:48:14;101167.47;;;12.91;97.23
20630;BME280;17386;43.846;25.950;2022-09-20T02:51:04;101176.59;;;12.85;97.43
20630;BME280;17386;43.846;25.950;2022-09-20T02:53:42;101174.59;;;12.67;98.56
20630;BME280;17386;43.846;25.950;2022-09-20T02:57:22;101166.25;;;12.76;98.24
20630;BME280;17386;43.846;25.950;2022-09-20T02:59:32;101174.31;;;12.75;97.35
20630;BME280;17386;43.846;25.950;2022-09-20T03:05:13;101178.97;;;12.70;98.09
20630;BME280;17386;43.846;25.950;2022-09-20T03:10:56;101181.78;;;12.65;97.82
20630;BME280;17386;43.846;25.950;2022-09-20T03:24:04;101180.47;;;12.77;96.57
20630;BME280;17386;43.846;25.950;2022-09-20T03:26:58;101195.75;;;12.72;96.72
20630;BME280;17386;43.846;25.950;2022-09-20T03:30:03;101181.44;;;12.74;96.34
20630;BME280;17386;43.846;25.950;2022-09-20T03:42:50;101187.34;;;12.59;97.39
20630;BME280;17386;43.846;25.950;2022-09-20T04:02:28;101195.53;;;12.78;96.04
20630;BME280;17386;43.846;25.950;2022-09-20T04:04:55;101191.88;;;12.80;95.46
20630;BME280;17386;43.846;25.950;2022-09-20T04:23:46;101207.78;;;12.83;95.30
20630;BME280;17386;43.846;25.950;2022-09-20T04:26:21;101209.38;;;12.87;95.70
20630;BME280;17386;43.846;25.950;2022-09-20T04:31:40;101222.19;;;13.01;95.20
20630;BME280;17386;43.846;25.950;2022-09-20T04:34:15;101219.00;;;12.92;94.45
20630;BME280;17386;43.846;25.950;2022-09-20T04:36:56;101222.34;;;12.97;94.26
20630;BME280;17386;43.846;25.950;2022-09-20T04:39:46;101230.91;;;13.06;93.70
20630;BME280;17386;43.846;25.950;2022-09-20T04:45:29;101227.59;;;13.00;94.85
20630;BME280;17386;43.846;25.950;2022-09-20T04:56:20;101230.31;;;12.98;94.01
20630;BME280;17386;43.846;25.950;2022-09-20T04:59:05;101234.44;;;13.07;93.83
20630;BME280;17386;43.846;25.950;2022-09-20T05:26:50;101270.63;;;12.91;94.20
20630;BME280;17386;43.846;25.950;2022-09-20T05:32:44;101255.88;;;12.80;95.78
20630;BME280;17386;43.846;25.950;2022-09-20T05:35:44;101267.25;;;12.85;95.06
20630;BME280;17386;43.846;25.950;2022-09-20T05:41:03;101270.47;;;12.70;96.84
20630;BME280;17386;43.846;25.950;2022-09-20T05:43:33;101268.19;;;12.83;96.53
20630;BME280;17386;43.846;25.950;2022-09-20T05:49:26;101270.19;;;13.01;95.87
20630;BME280;17386;43.846;25.950;2022-09-20T05:55:03;101276.94;;;13.11;94.49
20630;BME280;17386;43.846;25.950;2022-09-20T05:57:56;101288.66;;;13.31;92.96
20630;BME280;17386;43.846;25.950;2022-09-20T06:00:29;101279.78;;;13.54;91.64
20630;BME280;17386;43.846;25.950;2022-09-20T06:03:19;101286.78;;;13.80;91.42
20630;BME280;17386;43.846;25.950;2022-09-20T06:11:32;101286.13;;;14.17;88.52
20630;BME280;17386;43.846;25.950;2022-09-20T06:15:09;101290.25;;;14.24;87.87
20630;BME280;17386;43.846;25.950;2022-09-20T06:17:23;101294.53;;;14.08;87.79
20630;BME280;17386;43.846;25.950;2022-09-20T06:22:42;101288.38;;;14.26;86.30
20630;BME280;17386;43.846;25.950;2022-09-20T06:27:48;101299.75;;;14.31;84.82
20630;BME280;17386;43.846;25.950;2022-09-20T06:30:32;101296.56;;;14.43;84.66
20630;BME280;17386;43.846;25.950;2022-09-20T06:35:34;101306.81;;;14.74;83.29
20630;BME280;17386;43.846;25.950;2022-09-20T06:41:09;101307.03;;;14.90;79.93
20630;BME280;17386;43.846;25.950;2022-09-20T06:43:55;101297.91;;;14.94;80.74
20630;BME280;17386;43.846;25.950;2022-09-20T06:46:23;101305.13;;;15.13;79.98
20630;BME280;17386;43.846;25.950;2022-09-20T06:48:49;101311.88;;;15.01;79.08
20630;BME280;17386;43.846;25.950;2022-09-20T06:51:15;101314.16;;;15.10;77.77
20630;BME280;17386;43.846;25.950;2022-09-20T06:53:41;101306.75;;;14.96;78.40
20630;BME280;17386;43.846;25.950;2022-09-20T06:56:17;101312.72;;;15.22;77.77
20630;BME280;17386;43.846;25.950;2022-09-20T06:58:43;101313.53;;;15.24;76.95
20630;BME280;17386;43.846;25.950;2022-09-20T07:01:09;101314.69;;;15.37;75.98
20630;BME280;17386;43.846;25.950;2022-09-20T07:03:34;101321.72;;;15.40;75.46
20630;BME280;17386;43.846;25.950;2022-09-20T07:06:00;101328.16;;;15.36;75.31
20630;BME280;17386;43.846;25.950;2022-09-20T07:08:26;101317.66;;;15.50;74.35
20630;BME280;17386;43.846;25.950;2022-09-20T07:10:51;101326.88;;;15.44;74.32
20630;BME280;17386;43.846;25.950;2022-09-20T07:13:17;101326.16;;;15.59;74.55
20630;BME280;17386;43.846;25.950;2022-09-20T07:15:45;101332.69;;;15.73;73.42
20630;BME280;17386;43.846;25.950;2022-09-20T07:18:10;101315.22;;;15.83;72.73
20630;BME280;17386;43.846;25.950;2022-09-20T07:20:36;101324.88;;;16.04;72.14
20630;BME280;17386;43.846;25.950;2022-09-20T07:23:02;101330.72;;;16.12;71.10
20630;BME280;17386;43.846;25.950;2022-09-20T07:25:28;101344.69;;;16.19;70.68
20630;BME280;17386;43.846;25.950;2022-09-20T07:27:54;101341.88;;;15.86;71.39
20630;BME280;17386;43.846;25.950;2022-09-20T07:30:19;101340.19;;;16.02;70.72
20630;BME280;17386;43.846;25.950;2022-09-20T07:32:45;101337.22;;;16.08;70.46
20630;BME280;17386;43.846;25.950;2022-09-20T07:35:11;101338.38;;;16.03;70.11
20630;BME280;17386;43.846;25.950;2022-09-20T07:37:37;101334.22;;;16.14;70.28
20630;BME280;17386;43.846;25.950;2022-09-20T07:40:06;101333.47;;;15.94;69.98
20630;BME280;17386;43.846;25.950;2022-09-20T07:42:32;101333.78;;;16.05;70.75
20630;BME280;17386;43.846;25.950;2022-09-20T07:44:57;101328.78;;;16.16;70.12
20630;BME280;17386;43.846;25.950;2022-09-20T07:47:25;101328.88;;;16.32;69.46
20630;BME280;17386;43.846;25.950;2022-09-20T07:49:52;101338.56;;;16.17;70.36
20630;BME280;17386;43.846;25.950;2022-09-20T07:52:18;101327.16;;;16.31;69.14
20630;BME280;17386;43.846;25.950;2022-09-20T07:54:43;101335.22;;;16.48;69.08
20630;BME280;17386;43.846;25.950;2022-09-20T07:57:10;101327.09;;;16.50;67.93
20630;BME280;17386;43.846;25.950;2022-09-20T07:59:36;101316.13;;;16.54;67.63
20630;BME280;17386;43.846;25.950;2022-09-20T08:02:01;101320.78;;;16.68;67.88
20630;BME280;17386;43.846;25.950;2022-09-20T08:04:27;101319.47;;;16.77;67.49
20630;BME280;17386;43.846;25.950;2022-09-20T08:06:52;101324.97;;;16.91;66.76
20630;BME280;17386;43.846;25.950;2022-09-20T08:09:18;101314.19;;;17.08;66.06
20630;BME280;17386;43.846;25.950;2022-09-20T08:11:43;101315.88;;;17.11;65.76
20630;BME280;17386;43.846;25.950;2022-09-20T08:14:13;101319.97;;;17.34;64.01
20630;BME280;17386;43.846;25.950;2022-09-20T08:16:44;101313.22;;;17.27;61.98
20630;BME280;17386;43.846;25.950;2022-09-20T08:19:19;101313.97;;;17.13;61.99
20630;BME280;17386;43.846;25.950;2022-09-20T08:21:45;101310.50;;;17.11;62.73
20630;BME280;17386;43.846;25.950;2022-09-20T08:24:11;101311.38;;;17.11;62.01
20630;BME280;17386;43.846;25.950;2022-09-20T08:26:37;101310.28;;;17.31;61.93
20630;BME280;17386;43.846;25.950;2022-09-20T08:29:04;101305.78;;;17.47;61.20
20630;BME280;17386;43.846;25.950;2022-09-20T08:31:31;101304.06;;;17.62;59.81
20630;BME280;17386;43.846;25.950;2022-09-20T08:33:59;101298.81;;;17.76;60.48
20630;BME280;17386;43.846;25.950;2022-09-20T08:36:28;101295.13;;;17.46;59.32
20630;BME280;17386;43.846;25.950;2022-09-20T08:38:54;101295.13;;;17.62;58.67
20630;BME280;17386;43.846;25.950;2022-09-20T08:44:01;101293.84;;;17.53;54.28
20630;BME280;17386;43.846;25.950;2022-09-20T08:46:38;101287.69;;;17.67;55.54
20630;BME280;17386;43.846;25.950;2022-09-20T08:49:05;101285.44;;;17.91;55.63
20630;BME280;17386;43.846;25.950;2022-09-20T08:51:35;101280.59;;;17.97;54.27
20630;BME280;17386;43.846;25.950;2022-09-20T08:54:02;101273.22;;;18.01;54.76
20630;BME280;17386;43.846;25.950;2022-09-20T08:56:34;101280.28;;;18.18;54.70
20630;BME280;17386;43.846;25.950;2022-09-20T08:59:02;101274.72;;;18.51;54.48
20630;BME280;17386;43.846;25.950;2022-09-20T09:01:28;101277.56;;;18.64;51.72
20630;BME280;17386;43.846;25.950;2022-09-20T09:04:10;101270.69;;;18.44;51.25
20630;BME280;17386;43.846;25.950;2022-09-20T09:06:37;101253.41;;;18.48;52.34
20630;BME280;17386;43.846;25.950;2022-09-20T09:09:03;101265.69;;;18.68;50.98
20630;BME280;17386;43.846;25.950;2022-09-20T09:11:28;101262.63;;;18.74;50.65
20630;BME280;17386;43.846;25.950;2022-09-20T09:16:25;101261.78;;;19.02;49.47
20630;BME280;17386;43.846;25.950;2022-09-20T09:18:51;101261.28;;;18.95;47.87
20630;BME280;17386;43.846;25.950;2022-09-20T09:24:06;101244.06;;;18.83;48.16
20630;BME280;17386;43.846;25.950;2022-09-20T09:26:40;101242.72;;;19.05;47.76
20630;BME280;17386;43.846;25.950;2022-09-20T09:29:17;101257.16;;;18.90;46.55
20630;BME280;17386;43.846;25.950;2022-09-20T09:31:44;101256.56;;;18.99;47.58
20630;BME280;17386;43.846;25.950;2022-09-20T09:34:28;101244.06;;;19.12;47.87
20630;BME280;17386;43.846;25.950;2022-09-20T09:36:55;101252.81;;;19.01;46.96
20630;BME280;17386;43.846;25.950;2022-09-20T09:39:27;101251.47;;;18.94;46.42
20630;BME280;17386;43.846;25.950;2022-09-20T09:41:53;101237.53;;;19.16;46.04
20630;BME280;17386;43.846;25.950;2022-09-20T09:44:22;101242.00;;;19.44;45.52
20630;BME280;17386;43.846;25.950;2022-09-20T09:46:48;101236.69;;;19.57;44.39
20630;BME280;17386;43.846;25.950;2022-09-20T09:49:21;101233.69;;;19.88;44.57
20630;BME280;17386;43.846;25.950;2022-09-20T09:52:16;101232.81;;;20.15;43.17
20630;BME280;17386;43.846;25.950;2022-09-20T09:54:50;101227.88;;;20.21;43.25
20630;BME280;17386;43.846;25.950;2022-09-20T10:00:13;101221.78;;;20.58;42.14
20630;BME280;17386;43.846;25.950;2022-09-20T10:11:20;101218.56;;;21.53;37.73
20630;BME280;17386;43.846;25.950;2022-09-20T10:28:16;101205.84;;;20.67;40.08
20630;BME280;17386;43.846;25.950;2022-09-20T10:33:48;101217.06;;;20.74;40.59
20630;BME280;17386;43.846;25.950;2022-09-20T10:36:32;101200.94;;;20.98;40.21
20630;BME280;17386;43.846;25.950;2022-09-20T10:39:34;101214.22;;;21.14;39.92
20630;BME280;17386;43.846;25.950;2022-09-20T10:42:37;101204.16;;;21.16;39.73
20630;BME280;17386;43.846;25.950;2022-09-20T10:48:04;101207.31;;;20.71;39.84
20630;BME280;17386;43.846;25.950;2022-09-20T10:56:25;101208.16;;;20.34;40.23
20630;BME280;17386;43.846;25.950;2022-09-20T11:10:11;101190.81;;;20.51;38.59
20630;BME280;17386;43.846;25.950;2022-09-20T11:12:42;101190.91;;;20.87;37.42
20630;BME280;17386;43.846;25.950;2022-09-20T11:15:22;101179.97;;;21.14;37.98
20630;BME280;17386;43.846;25.950;2022-09-20T11:20:31;101184.72;;;21.47;37.37
20630;BME280;17386;43.846;25.950;2022-09-20T11:23:18;101178.38;;;21.48;37.19
20630;BME280;17386;43.846;25.950;2022-09-20T11:25:52;101173.69;;;21.50;36.65
20630;BME280;17386;43.846;25.950;2022-09-20T11:28:27;101173.28;;;21.44;36.50
20630;BME280;17386;43.846;25.950;2022-09-20T11:31:03;101179.41;;;21.22;37.03
20630;BME280;17386;43.846;25.950;2022-09-20T11:33:41;101168.47;;;21.23;37.37
20630;BME280;17386;43.846;25.950;2022-09-20T11:36:12;101169.19;;;21.01;36.34
20630;BME280;17386;43.846;25.950;2022-09-20T11:41:13;101163.34;;;20.95;36.63
20630;BME280;17386;43.846;25.950;2022-09-20T11:43:41;101161.53;;;21.19;36.41
20630;BME280;17386;43.846;25.950;2022-09-20T11:46:13;101158.34;;;21.14;36.27
20630;BME280;17386;43.846;25.950;2022-09-20T11:48:46;101149.91;;;21.06;36.87
20630;BME280;17386;43.846;25.950;2022-09-20T11:56:52;101162.47;;;21.07;37.47
20630;BME280;17386;43.846;25.950;2022-09-20T11:59:34;101145.00;;;20.87;38.41
20630;BME280;17386;43.846;25.950;2022-09-20T12:02:04;101152.56;;;20.95;38.79
20630;BME280;17386;43.846;25.950;2022-09-20T12:04:37;101148.88;;;20.83;38.03
20630;BME280;17386;43.846;25.950;2022-09-20T12:07:23;101154.13;;;20.48;38.48
20630;BME280;17386;43.846;25.950;2022-09-20T12:09:53;101145.03;;;20.49;38.88
20630;BME280;17386;43.846;25.950;2022-09-20T12:12:31;101150.88;;;20.56;38.52
20630;BME280;17386;43.846;25.950;2022-09-20T12:15:02;101153.56;;;20.56;38.26
20630;BME280;17386;43.846;25.950;2022-09-20T12:28:36;101133.44;;;21.35;38.79
20630;BME280;17386;43.846;25.950;2022-09-20T12:39:20;101133.84;;;21.41;38.90
20630;BME280;17386;43.846;25.950;2022-09-20T12:47:20;101140.09;;;21.05;40.88
20630;BME280;17386;43.846;25.950;2022-09-20T12:55:42;101133.66;;;21.32;40.02
20630;BME280;17386;43.846;25.950;2022-09-20T13:03:24;101133.34;;;21.23;40.94
20630;BME280;17386;43.846;25.950;2022-09-20T13:11:53;101113.53;;;20.99;40.13
20630;BME280;17386;43.846;25.950;2022-09-20T13:14:26;101136.09;;;20.98;40.46
20630;BME280;17386;43.846;25.950;2022-09-20T13:19:44;101137.41;;;20.92;41.13
20630;BME280;17386;43.846;25.950;2022-09-20T13:22:14;101136.00;;;20.99;41.06
20630;BME280;17386;43.846;25.950;2022-09-20T13:24:52;101132.50;;;20.86;41.32
20630;BME280;17386;43.846;25.950;2022-09-20T13:27:28;101128.97;;;20.60;41.88
20630;BME280;17386;43.846;25.950;2022-09-20T13:30:28;101131.44;;;20.51;42.18
20630;BME280;17386;43.846;25.950;2022-09-20T13:33:22;101130.00;;;20.58;42.72
20630;BME280;17386;43.846;25.950;2022-09-20T13:35:51;101132.72;;;20.45;43.23
20630;BME280;17386;43.846;25.950;2022-09-20T13:38:19;101133.56;;;20.33;43.40
20630;BME280;17386;43.846;25.950;2022-09-20T13:40:47;101141.31;;;20.37;43.56
20630;BME280;17386;43.846;25.950;2022-09-20T13:43:34;101134.88;;;20.27;43.24
20630;BME280;17386;43.846;25.950;2022-09-20T13:46:10;101126.44;;;20.19;42.90
20630;BME280;17386;43.846;25.950;2022-09-20T13:48:36;101130.75;;;20.09;43.05
20630;BME280;17386;43.846;25.950;2022-09-20T13:51:02;101131.84;;;20.19;43.71
20630;BME280;17386;43.846;25.950;2022-09-20T13:53:29;101138.94;;;20.07;43.97
20630;BME280;17386;43.846;25.950;2022-09-20T13:55:57;101125.59;;;20.18;43.71
20630;BME280;17386;43.846;25.950;2022-09-20T13:58:25;101131.19;;;20.15;43.92
20630;BME280;17386;43.846;25.950;2022-09-20T14:03:19;101135.53;;;20.18;44.55
20630;BME280;17386;43.846;25.950;2022-09-20T14:05:51;101134.97;;;20.26;44.17
20630;BME280;17386;43.846;25.950;2022-09-20T14:08:40;101125.03;;;20.13;44.40
20630;BME280;17386;43.846;25.950;2022-09-20T14:11:29;101141.34;;;20.25;44.21
20630;BME280;17386;43.846;25.950;2022-09-20T14:14:01;101128.59;;;20.14;44.23
20630;BME280;17386;43.846;25.950;2022-09-20T14:16:37;101129.25;;;20.05;44.76
20630;BME280;17386;43.846;25.950;2022-09-20T14:19:04;101130.00;;;20.19;45.18
20630;BME280;17386;43.846;25.950;2022-09-20T14:21:32;101134.88;;;20.27;45.10
20630;BME280;17386;43.846;25.950;2022-09-20T14:26:29;101134.63;;;20.17;45.30
20630;BME280;17386;43.846;25.950;2022-09-20T14:32:00;101140.25;;;20.14;45.32
20630;BME280;17386;43.846;25.950;2022-09-20T14:34:26;101138.97;;;20.20;45.54
20630;BME280;17386;43.846;25.950;2022-09-20T14:37:02;101131.06;;;20.30;44.98
20630;BME280;17386;43.846;25.950;2022-09-20T14:39:29;101133.00;;;20.15;45.37
20630;BME280;17386;43.846;25.950;2022-09-20T14:41:54;101128.59;;;20.14;44.56
20630;BME280;17386;43.846;25.950;2022-09-20T14:46:46;101136.91;;;20.11;44.86
20630;BME280;17386;43.846;25.950;2022-09-20T14:51:49;101143.91;;;20.13;44.74
20630;BME280;17386;43.846;25.950;2022-09-20T14:54:23;101149.31;;;20.13;44.69
20630;BME280;17386;43.846;25.950;2022-09-20T14:56:50;101123.44;;;20.11;45.78
20630;BME280;17386;43.846;25.950;2022-09-20T14:59:23;101136.56;;;20.15;46.13
20630;BME280;17386;43.846;25.950;2022-09-20T15:04:34;101123.44;;;20.11;47.13
20630;BME280;17386;43.846;25.950;2022-09-20T15:07:07;101122.66;;;20.09;47.01
20630;BME280;17386;43.846;25.950;2022-09-20T15:09:34;101129.03;;;20.08;47.41
20630;BME280;17386;43.846;25.950;2022-09-20T15:12:01;101138.84;;;20.09;47.57
20630;BME280;17386;43.846;25.950;2022-09-20T15:14:26;101135.16;;;20.10;47.49
20630;BME280;17386;43.846;25.950;2022-09-20T15:16:52;101133.44;;;20.09;47.24
20630;BME280;17386;43.846;25.950;2022-09-20T15:19:18;101130.00;;;20.07;47.46
20630;BME280;17386;43.846;25.950;2022-09-20T15:21:43;101129.03;;;20.08;47.43
20630;BME280;17386;43.846;25.950;2022-09-20T15:24:08;101131.41;;;20.12;47.83
20630;BME280;17386;43.846;25.950;2022-09-20T15:26:34;101126.00;;;20.12;47.99
20630;BME280;17386;43.846;25.950;2022-09-20T15:29:00;101131.19;;;20.15;48.28
20630;BME280;17386;43.846;25.950;2022-09-20T15:31:25;101124.19;;;20.13;48.36
20630;BME280;17386;43.846;25.950;2022-09-20T15:33:52;101133.44;;;20.09;48.55
20630;BME280;17386;43.846;25.950;2022-09-20T15:36:17;101137.53;;;20.02;48.77
20630;BME280;17386;43.846;25.950;2022-09-20T15:38:43;101134.63;;;19.92;49.67
20630;BME280;17386;43.846;25.950;2022-09-20T15:41:10;101136.63;;;19.88;49.55
20630;BME280;17386;43.846;25.950;2022-09-20T15:43:35;101139.66;;;19.84;50.27
20630;BME280;17386;43.846;25.950;2022-09-20T15:46:21;101146.19;;;19.67;51.69
20630;BME280;17386;43.846;25.950;2022-09-20T15:48:47;101129.34;;;19.36;53.46
20630;BME280;17386;43.846;25.950;2022-09-20T15:51:13;101155.22;;;19.39;54.49
20630;BME280;17386;43.846;25.950;2022-09-20T15:53:52;101157.91;;;19.39;54.88
20630;BME280;17386;43.846;25.950;2022-09-20T15:56:29;101157.16;;;19.37;54.85
20630;BME280;17386;43.846;25.950;2022-09-20T15:59:06;101150.72;;;19.25;55.41
20630;BME280;17386;43.846;25.950;2022-09-20T16:04:04;101154.47;;;18.96;55.45
20630;BME280;17386;43.846;25.950;2022-09-20T16:06:30;101151.38;;;19.02;58.76
20630;BME280;17386;43.846;25.950;2022-09-20T16:08:56;101152.53;;;18.98;57.66
20630;BME280;17386;43.846;25.950;2022-09-20T16:11:21;101155.31;;;18.96;56.84
20630;BME280;17386;43.846;25.950;2022-09-20T16:13:57;101160.63;;;18.83;56.42
20630;BME280;17386;43.846;25.950;2022-09-20T16:16:24;101161.88;;;18.78;56.10
20630;BME280;17386;43.846;25.950;2022-09-20T16:18:50;101162.13;;;18.73;55.83
20630;BME280;17386;43.846;25.950;2022-09-20T16:21:36;101159.66;;;18.70;54.85
20630;BME280;17386;43.846;25.950;2022-09-20T16:24:02;101166.63;;;18.58;54.70
20630;BME280;17386;43.846;25.950;2022-09-20T16:26:27;101165.28;;;18.51;54.35
20630;BME280;17386;43.846;25.950;2022-09-20T16:28:54;101167.50;;;18.59;54.21
20630;BME280;17386;43.846;25.950;2022-09-20T16:31:29;101172.81;;;18.61;53.86
20630;BME280;17386;43.846;25.950;2022-09-20T16:33:57;101166.63;;;18.58;54.22
20630;BME280;17386;43.846;25.950;2022-09-20T16:36:24;101173.75;;;18.59;54.42
20630;BME280;17386;43.846;25.950;2022-09-20T16:38:50;101181.53;;;18.64;54.51
20630;BME280;17386;43.846;25.950;2022-09-20T16:41:16;101183.38;;;18.64;54.19
20630;BME280;17386;43.846;25.950;2022-09-20T16:43:41;101188.59;;;18.67;54.22
20630;BME280;17386;43.846;25.950;2022-09-20T16:46:07;101185.91;;;18.67;54.19
20630;BME280;17386;43.846;25.950;2022-09-20T16:48:34;101188.84;;;18.62;54.41
20630;BME280;17386;43.846;25.950;2022-09-20T16:51:00;101188.00;;;18.62;54.33
20630;BME280;17386;43.846;25.950;2022-09-20T16:53:26;101189.88;;;18.59;54.68
20630;BME280;17386;43.846;25.950;2022-09-20T16:55:53;101186.34;;;18.59;54.51
20630;BME280;17386;43.846;25.950;2022-09-20T16:58:29;101195.69;;;18.53;54.91
20630;BME280;17386;43.846;25.950;2022-09-20T17:01:04;101194.97;;;18.50;55.16
20630;BME280;17386;43.846;25.950;2022-09-20T17:03:30;101197.50;;;18.53;55.25
20630;BME280;17386;43.846;25.950;2022-09-20T17:06:05;101194.88;;;18.51;55.57
20630;BME280;17386;43.846;25.950;2022-09-20T17:08:31;101203.16;;;18.48;55.95
20630;BME280;17386;43.846;25.950;2022-09-20T17:11:15;101205.63;;;18.51;56.22
20630;BME280;17386;43.846;25.950;2022-09-20T17:13:42;101197.06;;;18.45;56.42
20630;BME280;17386;43.846;25.950;2022-09-20T17:16:11;101198.34;;;18.39;56.77
20630;BME280;17386;43.846;25.950;2022-09-20T17:18:37;101199.09;;;18.41;56.72
20630;BME280;17386;43.846;25.950;2022-09-20T17:21:09;101196.78;;;18.35;58.02
20630;BME280;17386;43.846;25.950;2022-09-20T17:23:36;101199.75;;;18.30;58.60
20630;BME280;17386;43.846;25.950;2022-09-20T17:26:07;101206.19;;;18.28;58.85
20630;BME280;17386;43.846;25.950;2022-09-20T17:28:35;101209.03;;;18.25;59.27
20630;BME280;17386;43.846;25.950;2022-09-20T17:31:01;101212.78;;;18.22;59.55
20630;BME280;17386;43.846;25.950;2022-09-20T17:33:26;101207.28;;;18.10;59.26
20630;BME280;17386;43.846;25.950;2022-09-20T17:35:55;101204.00;;;18.04;58.44
20630;BME280;17386;43.846;25.950;2022-09-20T17:38:24;101219.47;;;18.01;57.91
20630;BME280;17386;43.846;25.950;2022-09-20T17:40:57;101213.13;;;18.02;58.22
20630;BME280;17386;43.846;25.950;2022-09-20T17:43:24;101222.91;;;18.03;58.22
20630;BME280;17386;43.846;25.950;2022-09-20T17:45:51;101219.19;;;18.06;58.18
20630;BME280;17386;43.846;25.950;2022-09-20T17:48:16;101223.00;;;18.01;57.95
20630;BME280;17386;43.846;25.950;2022-09-20T17:50:53;101228.38;;;18.01;57.71
20630;BME280;17386;43.846;25.950;2022-09-20T17:53:19;101223.47;;;17.94;58.36
20630;BME280;17386;43.846;25.950;2022-09-20T17:55:52;101234.03;;;17.97;58.65
20630;BME280;17386;43.846;25.950;2022-09-20T17:58:17;101227.13;;;17.93;58.82
20630;BME280;17386;43.846;25.950;2022-09-20T18:00:43;101235.78;;;17.82;58.92
20630;BME280;17386;43.846;25.950;2022-09-20T18:03:08;101239.34;;;17.83;58.65
20630;BME280;17386;43.846;25.950;2022-09-20T18:05:34;101239.00;;;17.73;58.31
20630;BME280;17386;43.846;25.950;2022-09-20T18:07:59;101246.31;;;17.71;58.27
20630;BME280;17386;43.846;25.950;2022-09-20T18:10:25;101240.38;;;17.64;58.09
20630;BME280;17386;43.846;25.950;2022-09-20T18:12:53;101240.72;;;17.58;58.02
20630;BME280;17386;43.846;25.950;2022-09-20T18:15:18;101237.53;;;17.52;57.75
20630;BME280;17386;43.846;25.950;2022-09-20T18:17:44;101236.56;;;17.53;57.40
20630;BME280;17386;43.846;25.950;2022-09-20T18:20:09;101234.13;;;17.48;57.15
20630;BME280;17386;43.846;25.950;2022-09-20T18:22:35;101244.09;;;17.46;56.49